createdAt,value
2018-06-08T00:01:31.305Z,8.50
2018-06-08T00:04:01.576Z,8.70
2018-06-08T00:06:31.939Z,8.20
2018-06-08T00:09:02.407Z,8.13
2018-06-08T00:11:32.723Z,7.57
2018-06-08T00:14:02.724Z,8.70
2018-06-08T00:16:32.923Z,7.20
2018-06-08T00:19:03.205Z,8.07
2018-06-08T00:21:33.512Z,8.40
2018-06-08T00:24:03.788Z,8.37
2018-06-08T00:26:34.100Z,7.77
2018-06-08T00:29:04.396Z,7.40
2018-06-08T00:31:34.737Z,8.03
2018-06-08T00:34:05.008Z,8.37
2018-06-08T00:36:35.305Z,7.60
2018-06-08T00:39:09.295Z,8.90
2018-06-08T00:41:39.615Z,8.40
2018-06-08T00:44:09.936Z,7.90
2018-06-08T00:46:40.352Z,8.00
2018-06-08T00:49:10.732Z,7.70
2018-06-08T00:51:41.085Z,7.17
2018-06-08T00:54:11.099Z,7.77
2018-06-08T00:56:58.276Z,7.80
2018-06-08T00:59:28.543Z,8.20
2018-06-08T01:01:58.868Z,7.83
2018-06-08T01:04:29.134Z,8.77
2018-06-08T01:06:59.548Z,8.53
2018-06-08T01:09:29.822Z,7.73
2018-06-08T01:12:00.149Z,7.60
2018-06-08T01:14:32.997Z,8.23
2018-06-08T01:17:03.589Z,6.93
2018-06-08T01:19:35.139Z,7.80
2018-06-08T01:22:05.456Z,7.70
2018-06-08T01:24:35.768Z,6.97
2018-06-08T01:27:06.990Z,6.80
2018-06-08T01:29:37.272Z,7.10
2018-06-08T01:32:07.540Z,7.60
2018-06-08T01:34:37.844Z,7.10
2018-06-08T01:37:08.127Z,7.83
2018-06-08T01:39:38.485Z,7.50
2018-06-08T01:42:08.761Z,6.47
2018-06-08T01:44:39.067Z,7.47
2018-06-08T01:47:09.393Z,7.60
2018-06-08T01:49:39.716Z,7.30
2018-06-08T01:52:10.045Z,7.37
2018-06-08T01:54:40.328Z,7.43
2018-06-08T01:57:10.622Z,7.83
2018-06-08T01:59:40.909Z,7.47
2018-06-08T02:02:11.225Z,7.83
2018-06-08T02:04:41.537Z,7.77
2018-06-08T02:07:11.866Z,6.83
2018-06-08T02:09:42.137Z,7.70
2018-06-08T02:12:12.413Z,6.70
2018-06-08T02:14:42.723Z,7.43
2018-06-08T02:17:12.969Z,7.60
2018-06-08T02:19:43.287Z,7.47
2018-06-08T02:22:13.560Z,7.37
2018-06-08T02:24:43.887Z,7.23
2018-06-08T02:27:14.108Z,7.60
2018-06-08T02:29:44.436Z,7.90
2018-06-08T02:32:14.736Z,7.37
2018-06-08T02:34:45.061Z,8.20
2018-06-08T02:37:15.385Z,7.93
2018-06-08T02:39:45.389Z,7.80
2018-06-08T02:42:15.284Z,7.13
2018-06-08T02:44:45.461Z,6.93
2018-06-08T02:47:15.750Z,7.47
2018-06-08T02:49:45.797Z,7.00
2018-06-08T02:52:15.976Z,7.30
2018-06-08T02:54:46.263Z,7.03
2018-06-08T02:57:16.590Z,7.47
2018-06-08T02:59:46.852Z,7.00
2018-06-08T03:02:16.878Z,11.23
2018-06-08T03:04:47.075Z,8.30
2018-06-08T03:07:17.408Z,7.80
2018-06-08T03:09:47.656Z,7.40
2018-06-08T03:12:17.986Z,7.93
2018-06-08T03:14:48.273Z,7.20
2018-06-08T03:17:18.657Z,7.77
2018-06-08T03:19:48.956Z,8.53
2018-06-08T03:22:19.323Z,8.40
2018-06-08T03:24:49.669Z,8.77
2018-06-08T03:27:19.982Z,7.70
2018-06-08T03:29:50.357Z,9.33
2018-06-08T03:32:20.652Z,9.40
2018-06-08T03:34:50.909Z,8.20
2018-06-08T03:37:21.357Z,7.80
2018-06-08T03:39:51.703Z,8.00
2018-06-08T03:42:22.033Z,8.70
2018-06-08T03:44:52.360Z,7.60
2018-06-08T03:47:22.675Z,8.30
2018-06-08T03:49:52.954Z,8.00
2018-06-08T03:52:23.448Z,7.40
2018-06-08T03:54:53.764Z,7.77
2018-06-08T03:57:24.153Z,8.50
2018-06-08T03:59:54.481Z,9.87
2018-06-08T04:02:24.779Z,8.70
2018-06-08T04:04:55.088Z,7.40
2018-06-08T04:07:25.452Z,8.17
2018-06-08T04:09:55.807Z,7.63
2018-06-08T04:12:26.073Z,8.00
2018-06-08T04:14:56.347Z,7.80
2018-06-08T04:17:26.599Z,7.30
2018-06-08T04:19:56.880Z,6.50
2018-06-08T04:22:27.140Z,7.23
2018-06-08T04:24:57.094Z,8.50
2018-06-08T04:27:27.286Z,7.27
2018-06-08T04:29:57.575Z,7.83
2018-06-08T04:32:27.881Z,8.00
2018-06-08T04:34:58.162Z,7.83
2018-06-08T04:37:28.447Z,8.30
2018-06-08T04:39:58.721Z,7.93
2018-06-08T04:42:29.009Z,8.10
2018-06-08T04:44:59.259Z,7.70
2018-06-08T04:47:29.508Z,10.73
2018-06-08T04:49:59.752Z,8.40
2018-06-08T04:52:30.367Z,8.27
2018-06-08T04:55:00.640Z,7.90
2018-06-08T04:57:30.669Z,8.10
2018-06-08T05:00:00.833Z,7.40
2018-06-08T05:02:31.188Z,8.10
2018-06-08T05:05:01.469Z,7.80
2018-06-08T05:07:31.748Z,8.07
2018-06-08T05:10:02.057Z,9.20
2018-06-08T05:12:32.328Z,9.87
2018-06-08T05:15:02.592Z,8.73
2018-06-08T05:17:32.883Z,40.53
2018-06-08T05:20:03.178Z,26.50
2018-06-08T05:22:33.488Z,33.40
2018-06-08T05:25:03.492Z,22.67
2018-06-08T05:27:33.351Z,22.43
2018-06-08T05:30:07.643Z,36.60
2018-06-08T05:32:37.948Z,20.50
2018-06-08T05:35:08.251Z,12.60
2018-06-08T05:37:38.577Z,9.10
2018-06-08T05:40:08.920Z,9.53
2018-06-08T05:42:39.230Z,9.80
2018-06-08T05:45:09.473Z,9.73
2018-06-08T05:47:39.782Z,8.83
2018-06-08T05:50:10.117Z,8.83
2018-06-08T05:52:40.339Z,9.10
2018-06-08T05:55:10.524Z,9.33
2018-06-08T05:57:40.820Z,9.03
2018-06-08T06:00:11.181Z,18.87
2018-06-08T06:02:41.503Z,18.00
2018-06-08T06:05:11.973Z,9.87
2018-06-08T06:07:42.266Z,9.00
2018-06-08T06:10:12.555Z,9.03
2018-06-08T06:12:42.847Z,8.73
2018-06-08T06:15:13.192Z,8.73
2018-06-08T06:17:43.501Z,8.67
2018-06-08T06:20:13.812Z,8.30
2018-06-08T06:22:44.112Z,8.80
2018-06-08T06:25:14.447Z,8.77
2018-06-08T06:27:44.769Z,8.00
2018-06-08T06:30:15.066Z,7.53
2018-06-08T06:32:45.357Z,22.70
2018-06-08T06:35:15.635Z,20.90
2018-06-08T06:37:46.018Z,8.53
2018-06-08T06:40:16.412Z,7.37
2018-06-08T06:42:46.705Z,7.40
2018-06-08T06:45:17.444Z,37.83
2018-06-08T06:47:47.717Z,32.13
2018-06-08T06:50:18.045Z,11.60
2018-06-08T06:52:48.488Z,8.23
2018-06-08T06:55:18.805Z,8.37
2018-06-08T06:57:49.096Z,8.10
2018-06-08T07:00:19.515Z,8.67
2018-06-08T07:02:49.800Z,7.37
2018-06-08T07:05:20.131Z,7.67
2018-06-08T07:07:50.405Z,8.60
2018-06-08T07:10:20.705Z,8.60
2018-06-08T07:12:51.078Z,8.90
2018-06-08T07:15:21.319Z,8.30
2018-06-08T07:17:51.678Z,8.10
2018-06-08T07:20:22.023Z,8.10
2018-06-08T07:22:52.321Z,8.87
2018-06-08T07:25:22.589Z,8.20
2018-06-08T07:27:52.867Z,8.20
2018-06-08T07:30:23.272Z,8.83
2018-06-08T07:32:53.573Z,8.13
2018-06-08T07:35:23.838Z,7.40
2018-06-08T07:37:54.118Z,8.00
2018-06-08T07:40:24.520Z,7.53
2018-06-08T07:42:54.805Z,8.00
2018-06-08T07:45:25.105Z,9.00
2018-06-08T07:47:55.376Z,9.00
2018-06-08T07:50:25.664Z,8.60
2018-06-08T07:52:56.057Z,8.73
2018-06-08T07:55:26.363Z,9.23
2018-06-08T07:57:56.679Z,9.80
2018-06-08T08:00:26.944Z,10.07
2018-06-08T08:02:57.281Z,10.40
2018-06-08T08:05:27.637Z,9.93
2018-06-08T08:07:57.917Z,10.20
2018-06-08T08:10:28.267Z,10.40
2018-06-08T08:12:58.562Z,9.70
2018-06-08T08:15:28.868Z,10.60
2018-06-08T08:17:59.200Z,11.03
2018-06-08T08:20:29.565Z,10.57
2018-06-08T08:22:59.814Z,10.00
2018-06-08T08:25:30.116Z,9.97
2018-06-08T08:28:00.393Z,10.13
2018-06-08T08:30:30.753Z,9.80
2018-06-08T08:33:01.049Z,10.37
2018-06-08T08:35:31.375Z,10.27
2018-06-08T08:38:01.599Z,10.73
2018-06-08T08:40:31.902Z,10.53
2018-06-08T08:43:02.237Z,10.97
2018-06-08T08:45:32.554Z,11.00
2018-06-08T08:48:02.811Z,10.43
2018-06-08T08:50:33.146Z,10.27
2018-06-08T08:53:03.636Z,9.93
2018-06-08T08:55:33.843Z,10.60
2018-06-08T08:58:04.176Z,10.67
2018-06-08T09:00:34.446Z,10.40
2018-06-08T09:03:04.434Z,10.20
2018-06-08T09:05:34.689Z,16.37
2018-06-08T09:08:05.368Z,11.57
2018-06-08T09:10:35.653Z,11.13
2018-06-08T09:13:06.055Z,10.80
2018-06-08T09:15:36.321Z,23.13
2018-06-08T09:18:06.625Z,12.20
2018-06-08T09:20:36.930Z,11.30
2018-06-08T09:23:07.237Z,10.70
2018-06-08T09:25:37.505Z,12.70
2018-06-08T09:28:07.813Z,11.27
2018-06-08T09:30:37.744Z,11.37
2018-06-08T09:33:07.905Z,11.23
2018-06-08T09:35:38.217Z,11.50
2018-06-08T09:38:08.485Z,10.80
2018-06-08T09:40:38.785Z,11.47
2018-06-08T09:43:09.070Z,11.50
2018-06-08T09:45:39.353Z,10.73
2018-06-08T09:48:09.325Z,11.57
2018-06-08T09:50:39.583Z,10.40
2018-06-08T09:53:10.197Z,15.90
2018-06-08T09:55:40.642Z,12.90
2018-06-08T09:58:10.955Z,10.63
2018-06-08T10:00:41.663Z,11.20
2018-06-08T10:03:12.296Z,10.50
2018-06-08T10:05:42.630Z,12.20
2018-06-08T10:08:12.944Z,11.57
2018-06-08T10:10:43.256Z,11.40
2018-06-08T10:13:13.557Z,12.00
2018-06-08T10:15:43.905Z,11.70
2018-06-08T10:18:14.255Z,11.80
2018-06-08T10:20:44.723Z,11.60
2018-06-08T10:23:15.131Z,12.70
2018-06-08T10:25:45.473Z,12.20
2018-06-08T10:28:15.940Z,11.63
2018-06-08T10:30:46.306Z,12.27
2018-06-08T10:33:16.599Z,11.83
2018-06-08T10:35:46.972Z,11.67
2018-06-08T10:38:17.007Z,38.07
2018-06-08T10:40:47.412Z,22.90
2018-06-08T10:43:17.472Z,21.20
2018-06-08T10:45:47.668Z,12.50
2018-06-08T10:48:18.037Z,11.97
2018-06-08T10:50:48.302Z,11.73
2018-06-08T10:53:18.728Z,11.83
2018-06-08T10:55:49.082Z,11.73
2018-06-08T10:58:19.082Z,12.47
2018-06-08T11:00:49.298Z,11.30
2018-06-08T11:03:19.292Z,11.63
2018-06-08T11:05:49.482Z,10.93
2018-06-08T11:08:19.768Z,12.03
2018-06-08T11:10:50.055Z,11.20
2018-06-08T11:13:20.490Z,12.83
2018-06-08T11:15:51.149Z,12.83
2018-06-08T11:18:21.518Z,12.00
2018-06-08T11:20:51.841Z,11.67
2018-06-08T11:23:22.181Z,12.00
2018-06-08T11:25:52.521Z,12.37
2018-06-08T11:28:22.532Z,46.93
2018-06-08T11:30:52.485Z,16.63
2018-06-08T11:33:22.732Z,12.93
2018-06-08T11:35:53.021Z,10.97
2018-06-08T11:38:23.375Z,12.13
2018-06-08T11:40:53.664Z,12.80
2018-06-08T11:43:24.021Z,12.40
2018-06-08T11:45:54.406Z,12.70
2018-06-08T11:48:24.648Z,12.20
2018-06-08T11:50:54.947Z,11.33
2018-06-08T11:53:25.177Z,12.30
2018-06-08T11:55:55.399Z,12.70
2018-06-08T11:58:25.372Z,11.67
2018-06-08T12:00:55.642Z,12.17
2018-06-08T12:03:26.868Z,11.53
2018-06-08T12:05:57.177Z,12.40
2018-06-08T12:08:27.569Z,12.73
2018-06-08T12:10:57.901Z,12.30
2018-06-08T12:13:28.230Z,12.33
2018-06-08T12:15:58.584Z,12.13
2018-06-08T12:18:28.892Z,12.73
2018-06-08T12:20:59.221Z,12.53
2018-06-08T12:23:29.540Z,12.20
2018-06-08T12:25:59.853Z,11.43
2018-06-08T12:28:30.232Z,13.13
2018-06-08T12:31:00.581Z,12.77
2018-06-08T12:33:30.824Z,11.67
2018-06-08T12:36:01.206Z,12.43
2018-06-08T12:38:31.587Z,12.37
2018-06-08T12:41:01.980Z,12.40
2018-06-08T12:43:32.356Z,12.53
2018-06-08T12:46:02.685Z,11.80
2018-06-08T12:48:32.724Z,12.77
2018-06-08T12:51:02.936Z,12.70
2018-06-08T12:53:33.429Z,11.83
2018-06-08T12:56:03.755Z,14.17
2018-06-08T12:58:34.127Z,11.93
2018-06-08T13:01:04.444Z,12.17
2018-06-08T13:03:34.755Z,13.50
2018-06-08T13:06:04.816Z,12.40
2018-06-08T13:08:35.087Z,13.20
2018-06-08T13:11:05.354Z,12.70
2018-06-08T13:13:35.677Z,14.27
2018-06-08T13:16:06.018Z,14.27
2018-06-08T13:18:36.391Z,14.30
2018-06-08T13:21:06.381Z,13.13
2018-06-08T13:23:36.601Z,14.30
2018-06-08T13:26:06.967Z,14.53
2018-06-08T13:28:36.986Z,14.67
2018-06-08T13:31:07.252Z,13.43
2018-06-08T13:33:37.561Z,13.50
2018-06-08T13:36:07.843Z,14.70
2018-06-08T13:38:38.163Z,12.80
2018-06-08T13:41:08.133Z,12.90
2018-06-08T13:43:38.376Z,12.97
2018-06-08T13:47:13.072Z,12.30
2018-06-08T13:49:43.396Z,12.50
2018-06-08T13:52:13.685Z,12.83
2018-06-08T13:54:44.144Z,12.60
2018-06-08T13:57:14.493Z,13.03
2018-06-08T13:59:44.793Z,13.00
2018-06-08T14:02:15.108Z,13.10
2018-06-08T14:04:45.580Z,12.67
2018-06-08T14:07:15.932Z,12.90
2018-06-08T14:09:46.223Z,12.90
2018-06-08T14:12:16.438Z,12.90
2018-06-08T14:14:46.720Z,14.60
2018-06-08T14:17:16.980Z,12.43
2018-06-08T14:19:47.419Z,12.53
2018-06-08T14:22:18.002Z,13.30
2018-06-08T14:24:48.408Z,22.93
2018-06-08T14:27:18.378Z,47.97
2018-06-08T14:29:48.603Z,19.60
2018-06-08T14:32:18.879Z,13.23
2018-06-08T14:34:48.840Z,13.00
2018-06-08T14:37:19.084Z,12.07
2018-06-08T14:39:49.486Z,12.87
2018-06-08T14:42:19.746Z,11.67
2018-06-08T14:44:49.735Z,13.00
2018-06-08T14:47:19.931Z,12.60
2018-06-08T14:49:50.244Z,13.20
2018-06-08T14:52:20.599Z,12.60
2018-06-08T14:54:51.160Z,12.70
2018-06-08T14:57:21.265Z,12.23
2018-06-08T14:59:51.475Z,13.33
2018-06-08T15:02:21.829Z,13.10
2018-06-08T15:04:52.112Z,12.53
2018-06-08T15:07:22.434Z,12.10
2018-06-08T15:09:52.724Z,13.47
2018-06-08T15:12:23.475Z,13.57
2018-06-08T15:14:53.805Z,14.03
2018-06-08T15:17:24.120Z,12.80
2018-06-08T15:19:54.443Z,12.87
2018-06-08T15:22:24.728Z,13.20
2018-06-08T15:24:55.053Z,12.97
2018-06-08T15:27:25.429Z,13.40
2018-06-08T15:30:07.419Z,13.47
2018-06-08T15:32:37.745Z,13.03
2018-06-08T15:35:08.093Z,13.20
2018-06-08T15:37:38.408Z,12.53
2018-06-08T15:40:08.791Z,11.83
2018-06-08T15:42:39.105Z,12.30
2018-06-08T15:45:09.117Z,11.50
2018-06-08T15:47:39.380Z,11.10
2018-06-08T15:50:09.667Z,11.50
2018-06-08T15:52:40.001Z,10.10
2018-06-08T15:55:10.371Z,11.03
2018-06-08T15:57:40.718Z,11.53
2018-06-08T16:00:11.052Z,28.83
2018-06-08T16:02:41.401Z,40.43
2018-06-08T16:05:11.725Z,26.53
2018-06-08T16:07:41.793Z,32.03
2018-06-08T16:10:12.053Z,12.03
2018-06-08T16:12:42.312Z,15.03
2018-06-08T16:15:12.629Z,17.60
2018-06-08T16:17:42.932Z,12.40
2018-06-08T16:20:13.251Z,11.67
2018-06-08T16:22:43.201Z,12.53
2018-06-08T16:25:13.446Z,11.60
2018-06-08T16:27:43.808Z,20.23
2018-06-08T16:30:13.849Z,22.83
2018-06-08T16:32:44.077Z,18.43
2018-06-08T16:35:14.449Z,38.00
2018-06-08T16:37:44.772Z,33.80
2018-06-08T16:40:15.113Z,12.80
2018-06-08T16:42:45.391Z,12.23
2018-06-08T16:45:15.702Z,12.93
2018-06-08T16:47:45.993Z,12.73
2018-06-08T16:50:15.978Z,11.60
2018-06-08T16:52:46.246Z,17.10
2018-06-08T16:55:16.584Z,36.70
2018-06-08T16:57:46.948Z,13.03
2018-06-08T17:00:17.248Z,13.10
2018-06-08T17:02:47.568Z,12.23
2018-06-08T17:05:17.897Z,13.50
2018-06-08T17:07:48.213Z,14.87
2018-06-08T17:10:19.258Z,13.53
2018-06-08T17:12:49.611Z,12.90
2018-06-08T17:15:19.937Z,12.23
2018-06-08T17:17:50.318Z,13.17
2018-06-08T17:20:20.612Z,12.47
2018-06-08T17:22:50.616Z,28.60
2018-06-08T17:25:20.531Z,16.90
2018-06-08T17:27:50.726Z,14.10
2018-06-08T17:30:21.005Z,15.10
2018-06-08T17:32:51.082Z,12.83
2018-06-08T17:35:21.264Z,13.13
2018-06-08T17:37:51.590Z,13.33
2018-06-08T17:40:21.898Z,14.37
2018-06-08T17:42:52.528Z,14.30
2018-06-08T17:45:22.860Z,14.17
2018-06-08T17:47:53.231Z,14.40
2018-06-08T17:50:23.531Z,15.10
2018-06-08T17:52:53.836Z,15.60
2018-06-08T17:55:24.188Z,16.63
2018-06-08T17:57:54.573Z,23.10
2018-06-08T18:00:24.883Z,16.20
2018-06-08T18:02:55.261Z,16.67
2018-06-08T18:05:25.569Z,14.97
2018-06-08T18:07:55.897Z,14.80
2018-06-08T18:10:26.172Z,15.50
2018-06-08T18:12:56.516Z,15.10
2018-06-08T18:15:26.777Z,15.53
2018-06-08T18:17:57.138Z,15.57
2018-06-08T18:20:27.368Z,15.93
2018-06-08T18:22:57.654Z,16.60
2018-06-08T18:25:27.966Z,16.90
2018-06-08T18:27:58.288Z,16.37
2018-06-08T18:30:28.589Z,16.30
2018-06-08T18:32:58.876Z,15.97
2018-06-08T18:35:29.168Z,25.23
2018-06-08T18:37:59.612Z,26.60
2018-06-08T18:40:29.877Z,25.80
2018-06-08T18:43:00.549Z,23.40
2018-06-08T18:45:31.133Z,19.53
2018-06-08T18:48:02.235Z,17.83
2018-06-08T18:50:32.496Z,16.90
2018-06-08T18:53:02.792Z,17.43
2018-06-08T18:55:33.118Z,17.73
2018-06-08T18:58:03.516Z,17.27
2018-06-08T19:00:33.778Z,16.40
2018-06-08T19:03:04.116Z,17.27
2018-06-08T19:05:34.417Z,16.93
2018-06-08T19:08:04.776Z,17.00
2018-06-08T19:10:35.087Z,17.67
2018-06-08T19:13:05.548Z,16.37
2018-06-08T19:15:35.885Z,17.23
2018-06-08T19:18:06.304Z,17.37
2018-06-08T19:20:36.629Z,17.73
2018-06-08T19:23:07.009Z,17.80
2018-06-08T19:25:37.056Z,18.90
2018-06-08T19:28:07.359Z,16.87
2018-06-08T19:30:37.484Z,17.20
2018-06-08T19:33:07.761Z,17.13
2018-06-08T19:35:40.190Z,17.80
2018-06-08T19:38:10.567Z,18.13
2018-06-08T19:40:40.932Z,17.57
2018-06-08T19:43:11.299Z,18.40
2018-06-08T19:45:41.621Z,18.70
2018-06-08T19:48:11.956Z,17.87
2018-06-08T19:50:42.414Z,16.17
2018-06-08T19:53:12.769Z,16.20
2018-06-08T19:55:43.125Z,16.80
2018-06-08T19:58:13.459Z,18.73
2018-06-08T20:00:43.884Z,19.13
2018-06-08T20:03:14.261Z,20.80
2018-06-08T20:05:44.705Z,19.33
2018-06-08T20:08:15.067Z,19.23
2018-06-08T20:10:46.005Z,18.53
2018-06-08T20:13:16.459Z,18.90
2018-06-08T20:15:46.784Z,18.40
2018-06-08T20:18:17.168Z,16.80
2018-06-08T20:20:47.526Z,19.20
2018-06-08T20:23:17.893Z,18.83
2018-06-08T20:25:48.201Z,18.20
2018-06-08T20:28:18.549Z,17.17
2018-06-08T20:30:48.867Z,17.90
2018-06-08T20:33:19.241Z,19.30
2018-06-08T20:35:49.636Z,17.77
2018-06-08T20:38:19.933Z,17.53
2018-06-08T20:40:50.317Z,17.60
2018-06-08T20:43:20.612Z,18.67
2018-06-08T20:45:50.943Z,19.73
2018-06-08T20:48:21.284Z,18.00
2018-06-08T20:50:51.539Z,17.97
2018-06-08T20:53:21.856Z,18.50
2018-06-08T20:55:52.229Z,17.50
2018-06-08T20:58:29.455Z,18.13
2018-06-08T21:00:59.813Z,18.07
2018-06-08T21:03:30.069Z,19.10
2018-06-08T21:06:00.385Z,16.97
2018-06-08T21:08:30.649Z,19.50
2018-06-08T21:11:00.985Z,17.03
2018-06-08T21:13:31.250Z,19.20
2018-06-08T21:16:01.570Z,18.97
2018-06-08T21:18:31.895Z,19.00
2018-06-08T21:21:02.203Z,18.20
2018-06-08T21:23:32.575Z,18.77
2018-06-08T21:26:02.922Z,18.47
2018-06-08T21:28:33.317Z,19.07
2018-06-08T21:31:03.638Z,19.60
2018-06-08T21:33:33.923Z,19.63
2018-06-08T21:36:04.263Z,19.07
2018-06-08T21:38:34.631Z,18.30
2018-06-08T21:41:04.674Z,18.80
2018-06-08T21:43:34.938Z,19.50
2018-06-08T21:46:05.296Z,19.93
2018-06-08T21:48:35.638Z,18.67
2018-06-08T21:51:06.048Z,19.87
2018-06-08T21:53:36.951Z,18.00
2018-06-08T21:56:07.379Z,18.20
2018-06-08T21:58:37.678Z,18.63
2018-06-08T22:01:10.182Z,18.40
2018-06-08T22:03:40.522Z,18.70
2018-06-08T22:06:10.943Z,17.47
2018-06-08T22:08:41.348Z,19.30
2018-06-08T22:11:11.740Z,18.23
2018-06-08T22:13:42.057Z,17.77
2018-06-08T22:16:12.397Z,19.20
2018-06-08T22:18:42.884Z,19.07
2018-06-08T22:21:13.200Z,19.50
2018-06-08T22:23:43.910Z,18.30
2018-06-08T22:26:14.315Z,17.63
2018-06-08T22:28:44.704Z,18.07
2018-06-08T22:31:15.040Z,17.07
2018-06-08T22:33:45.404Z,19.10
2018-06-08T22:36:15.743Z,17.73
2018-06-08T22:38:46.065Z,19.00
2018-06-08T22:41:16.329Z,18.90
2018-06-08T22:43:46.635Z,18.80
2018-06-08T22:46:16.964Z,19.07
2018-06-08T22:48:47.322Z,18.70
2018-06-08T22:51:17.646Z,17.53
2018-06-08T22:53:47.965Z,18.10
2018-06-08T22:56:18.324Z,18.13
2018-06-08T22:58:48.677Z,18.77
2018-06-08T23:01:18.984Z,18.73
2018-06-08T23:03:49.265Z,18.83
2018-06-08T23:06:19.577Z,17.63
2018-06-08T23:08:49.602Z,17.77
2018-06-08T23:11:19.864Z,19.13
2018-06-08T23:13:50.151Z,17.80
2018-06-08T23:16:20.412Z,18.20
2018-06-08T23:18:50.777Z,18.10
2018-06-08T23:21:20.797Z,18.30
2018-06-08T23:23:51.016Z,17.67
2018-06-08T23:26:21.294Z,17.80
2018-06-08T23:28:51.643Z,18.80
2018-06-08T23:31:21.954Z,19.10
2018-06-08T23:33:52.210Z,19.30
2018-06-08T23:36:22.489Z,18.40
2018-06-08T23:38:52.821Z,18.37
2018-06-08T23:41:23.147Z,18.00
2018-06-08T23:43:53.461Z,16.90
2018-06-08T23:46:23.728Z,18.00
2018-06-08T23:48:54.020Z,18.60
2018-06-08T23:51:24.313Z,19.30
2018-06-08T23:53:54.645Z,19.20
2018-06-08T23:56:24.968Z,17.33
2018-06-08T23:58:55.258Z,18.83
